Time;durP1;ratioP1;P1;durP2;ratioP2;P2;SDS_P1;SDS_P2;PMS_P1;PMS_P2;Temp;Humidity;BMP_temperature;BMP_pressure;BME280_temperature;BME280_humidity;BME280_pressure;Samples;Min_cycle;Max_cycle;Signal;HPM_P1;HPM_P2
2023/09/07 00:01:25;;;;;;;3.23;1.93;;;;;;;20.02;100.00;102185.13;6092191;23;20965;-72
2023/09/07 00:03:50;;;;;;;3.70;1.90;;;;;;;19.18;100.00;102062.38;6090633;23;20218;-72
2023/09/07 00:06:15;;;;;;;3.80;1.60;;;;;;;19.42;100.00;102091.38;6089849;23;20154;-72
2023/09/07 00:08:41;;;;;;;3.40;1.60;;;;;;;19.41;100.00;102113.34;6090790;23;20261;-72
2023/09/07 00:11:07;;;;;;;5.07;1.50;;;;;;;19.17;100.00;102072.41;6091216;23;20453;-72
2023/09/07 00:13:33;;;;;;;3.10;1.50;;;;;;;19.79;100.00;102177.66;6091558;23;20154;-72
2023/09/07 00:16:03;;;;;;;3.83;2.07;;;;;;;19.22;100.00;102085.31;6090554;23;20385;-71
2023/09/07 00:18:29;;;;;;;3.47;1.60;;;;;;;19.02;100.00;102063.78;6063803;23;20438;-71
2023/09/07 00:20:54;;;;;;;3.33;1.90;;;;;;;19.68;100.00;102151.19;6090954;23;20378;-72
2023/09/07 00:23:20;;;;;;;3.00;1.70;;;;;;;19.45;100.00;102136.34;6089260;23;20754;-72
2023/09/07 00:25:46;;;;;;;4.33;1.70;;;;;;;19.32;100.00;102137.31;6090632;23;20158;-72
2023/09/07 00:28:11;;;;;;;3.07;1.47;;;;;;;19.71;100.00;102189.66;6088916;23;20174;-72
2023/09/07 00:30:37;;;;;;;4.00;1.60;;;;;;;18.96;100.00;102073.66;6090632;23;20635;-72
2023/09/07 00:33:03;;;;;;;3.20;1.57;;;;;;;19.02;100.00;102071.13;6093241;23;20213;-71
2023/09/07 00:35:28;;;;;;;2.80;1.63;;;;;;;19.62;100.00;102189.09;6093635;23;20484;-72
2023/09/07 00:37:54;;;;;;;2.67;1.50;;;;;;;19.26;100.00;102105.56;6093696;23;20185;-72
2023/09/07 00:40:20;;;;;;;2.60;1.40;;;;;;;18.89;100.00;102061.19;6093873;23;20181;-72
2023/09/07 00:42:45;;;;;;;4.93;1.73;;;;;;;19.21;100.00;102129.91;6093814;23;20248;-72
2023/09/07 00:45:11;;;;;;;3.30;1.60;;;;;;;18.67;100.00;102036.31;6092907;23;20461;-71
2023/09/07 00:47:37;;;;;;;4.13;1.77;;;;;;;19.70;100.00;102185.28;6091987;23;20173;-72
2023/09/07 00:50:04;;;;;;;3.50;1.80;;;;;;;19.34;100.00;102134.38;6090758;23;20248;-71
2023/09/07 00:52:31;;;;;;;3.63;1.60;;;;;;;19.19;100.00;102124.69;6093072;23;20162;-72
2023/09/07 00:54:56;;;;;;;4.30;2.00;;;;;;;18.99;100.00;102068.84;6065670;23;20391;-72
2023/09/07 00:57:22;;;;;;;3.70;1.70;;;;;;;19.43;100.00;102152.88;6092155;23;20425;-72
2023/09/07 00:59:47;;;;;;;3.27;1.73;;;;;;;18.81;100.00;102059.59;6090599;23;20175;-72
2023/09/07 01:02:13;;;;;;;2.90;1.60;;;;;;;18.90;100.00;102057.44;6091273;23;20159;-72
2023/09/07 01:04:38;;;;;;;3.53;1.53;;;;;;;18.93;100.00;102079.56;6092772;23;20824;-72
2023/09/07 01:07:14;;;;;;;2.77;1.57;;;;;;;19.68;100.00;102192.03;6093064;23;20222;-72
2023/09/07 01:09:42;;;;;;;3.23;1.90;;;;;;;19.70;100.00;102181.72;6067995;23;20179;-72
2023/09/07 01:12:10;;;;;;;2.93;1.77;;;;;;;19.38;100.00;102158.19;6086436;23;20853;-72
2023/09/07 01:14:36;;;;;;;3.20;1.80;;;;;;;18.74;100.00;102056.94;6089921;23;20398;-71
2023/09/07 01:17:03;;;;;;;3.63;2.07;;;;;;;19.54;100.00;102183.97;6091262;23;20458;-72
2023/09/07 01:19:29;;;;;;;3.50;2.07;;;;;;;19.36;100.00;102167.63;6090738;23;20437;-72
2023/09/07 01:21:54;;;;;;;4.67;1.80;;;;;;;19.48;100.00;102168.53;6091064;23;20713;-72
2023/09/07 01:24:21;;;;;;;3.70;1.77;;;;;;;19.07;100.00;102120.22;6089203;23;20166;-72
2023/09/07 01:26:49;;;;;;;3.63;1.90;;;;;;;19.26;100.00;102156.41;6091126;23;20470;-71
2023/09/07 01:29:16;;;;;;;5.23;2.20;;;;;;;19.36;100.00;102159.47;6089942;23;20417;-72
2023/09/07 01:31:42;;;;;;;3.50;2.10;;;;;;;18.77;100.00;102085.56;6091329;23;20590;-72
2023/09/07 01:34:08;;;;;;;4.50;2.07;;;;;;;19.06;100.00;102119.38;6093577;23;21069;-72
2023/09/07 01:36:34;;;;;;;4.53;1.73;;;;;;;18.36;100.00;102062.47;6066813;23;20398;-72
2023/09/07 01:39:01;;;;;;;4.47;2.00;;;;;;;18.39;100.00;102055.75;6090532;23;20316;-72
2023/09/07 01:41:26;;;;;;;4.80;1.70;;;;;;;19.12;100.00;102162.00;6090965;23;20386;-71
2023/09/07 01:43:52;;;;;;;4.07;2.13;;;;;;;18.34;100.00;102074.59;6064000;23;20413;-71
2023/09/07 01:46:17;;;;;;;3.50;2.00;;;;;;;18.25;100.00;102074.91;6064007;23;20957;-71
2023/09/07 01:48:43;;;;;;;3.70;1.80;;;;;;;18.94;100.00;102157.34;6090557;23;20171;-72
2023/09/07 01:51:08;;;;;;;4.47;2.40;;;;;;;19.08;100.00;102182.53;6065429;23;20246;-71
2023/09/07 01:53:34;;;;;;;4.10;1.93;;;;;;;19.11;100.00;102194.84;6091815;23;20178;-72
2023/09/07 01:55:59;;;;;;;5.27;2.63;;;;;;;18.10;100.00;102073.53;6092728;23;20178;-72
2023/09/07 01:58:25;;;;;;;3.90;2.40;;;;;;;18.45;100.00;102136.38;6087946;23;20198;-72
2023/09/07 02:00:56;;;;;;;6.60;2.23;;;;;;;18.17;100.00;102098.78;6090456;23;20155;-72
2023/09/07 02:03:21;;;;;;;4.50;2.20;;;;;;;18.15;100.00;102076.41;6090250;23;20147;-71
2023/09/07 02:05:47;;;;;;;6.90;2.20;;;;;;;19.03;100.00;102208.72;6091416;23;20405;-72
2023/09/07 02:08:12;;;;;;;3.93;2.10;;;;;;;18.27;100.00;102115.41;6064459;23;20278;-71
2023/09/07 02:10:39;;;;;;;3.33;1.97;;;;;;;19.02;100.00;102207.06;6091236;23;20540;-71
2023/09/07 02:13:04;;;;;;;3.00;1.83;;;;;;;19.06;100.00;102203.66;6090489;23;20154;-72
2023/09/07 02:15:30;;;;;;;4.17;2.10;;;;;;;18.50;100.00;102140.09;6091303;23;20461;-72
2023/09/07 02:17:55;;;;;;;3.60;2.20;;;;;;;18.02;100.00;102063.75;6091051;23;20189;-72
2023/09/07 02:20:21;;;;;;;4.73;2.50;;;;;;;17.77;100.00;102045.50;6063367;23;20602;-71
2023/09/07 02:22:46;;;;;;;5.40;2.50;;;;;;;18.50;100.00;102122.97;6088726;23;20210;-72
2023/09/07 02:25:12;;;;;;;5.47;2.23;;;;;;;18.90;100.00;102168.91;6089802;23;20165;-71
2023/09/07 02:27:37;;;;;;;4.20;2.60;;;;;;;18.85;100.00;102195.91;6090541;23;20151;-72
2023/09/07 02:30:04;;;;;;;3.67;2.20;;;;;;;18.00;100.00;102071.31;6089593;23;20178;-72
2023/09/07 02:32:29;;;;;;;3.47;1.70;;;;;;;18.37;100.00;102118.47;6088558;23;20563;-72
2023/09/07 02:34:55;;;;;;;3.17;1.67;;;;;;;18.83;100.00;102209.69;6087281;23;20675;-72
2023/09/07 02:37:20;;;;;;;3.57;1.80;;;;;;;18.88;100.00;102203.63;6065135;23;20648;-71
2023/09/07 02:39:46;;;;;;;3.60;1.93;;;;;;;18.91;100.00;102205.88;6090719;23;20207;-72
2023/09/07 02:42:11;;;;;;;4.00;2.30;;;;;;;18.49;100.00;102143.88;6090182;23;20158;-71
2023/09/07 02:44:38;;;;;;;3.67;2.10;;;;;;;18.76;100.00;102180.94;6064811;23;20170;-72
2023/09/07 02:47:03;;;;;;;4.33;2.20;;;;;;;18.03;100.00;102052.69;6064451;23;20162;-73
2023/09/07 02:49:29;;;;;;;4.40;2.40;;;;;;;18.89;100.00;102192.53;6088977;23;20838;-72
2023/09/07 02:51:54;;;;;;;4.20;2.50;;;;;;;18.15;100.00;102098.16;6089069;23;20155;-72
2023/09/07 02:54:20;;;;;;;4.00;2.33;;;;;;;18.25;100.00;102126.50;6089062;23;20155;-72
2023/09/07 02:56:45;;;;;;;3.30;2.10;;;;;;;18.64;100.00;102168.00;6064114;23;20273;-72
2023/09/07 02:59:10;;;;;;;3.47;1.93;;;;;;;17.97;100.00;102099.72;6086131;23;20857;-71
2023/09/07 03:01:39;;;;;;;4.50;2.30;;;;;;;17.61;100.00;102070.41;6090698;23;20165;-72
2023/09/07 03:04:04;;;;;;;3.97;2.37;;;;;;;17.69;100.00;102062.03;6064428;23;20241;-72
2023/09/07 03:06:30;;;;;;;3.80;2.00;;;;;;;18.67;100.00;102218.38;6090169;23;20457;-72
2023/09/07 03:08:56;;;;;;;4.40;2.30;;;;;;;17.84;100.00;102086.19;6089485;23;20755;-73
2023/09/07 03:11:22;;;;;;;4.40;2.70;;;;;;;18.26;100.00;102187.91;6064537;23;20162;-73
2023/09/07 03:13:47;;;;;;;6.00;2.10;;;;;;;18.42;100.00;102169.41;6089136;23;20383;-72
2023/09/07 03:16:13;;;;;;;3.80;2.50;;;;;;;18.38;100.00;102179.88;6090698;23;20159;-72
2023/09/07 03:18:38;;;;;;;3.73;2.50;;;;;;;17.89;100.00;102082.84;6090142;23;20257;-72
2023/09/07 03:21:04;;;;;;;4.97;2.73;;;;;;;17.92;100.00;102099.53;6090871;23;20157;-71
2023/09/07 03:23:31;;;;;;;6.43;2.57;;;;;;;18.53;100.00;102212.19;6090062;23;20158;-71
2023/09/07 03:25:58;;;;;;;5.47;2.63;;;;;;;17.25;100.00;102000.47;6090126;23;20160;-71
2023/09/07 03:28:25;;;;;;;3.43;2.30;;;;;;;17.76;100.00;102095.41;6087383;23;20406;-72
2023/09/07 03:30:51;;;;;;;3.90;2.40;;;;;;;17.70;100.00;102098.13;6090454;23;20394;-72
2023/09/07 03:33:16;;;;;;;4.70;2.17;;;;;;;18.21;100.00;102190.44;6090483;23;20378;-71
2023/09/07 03:35:42;;;;;;;4.00;2.70;;;;;;;18.26;100.00;102200.66;6091088;23;20378;-72
2023/09/07 03:38:07;;;;;;;4.03;2.30;;;;;;;18.12;100.00;102159.16;6062893;23;20924;-71
2023/09/07 03:40:32;;;;;;;3.53;2.03;;;;;;;17.57;100.00;102109.88;6063614;23;20253;-72
2023/09/07 03:42:58;;;;;;;6.80;2.80;;;;;;;18.11;100.00;102209.09;6089497;23;20594;-72
2023/09/07 03:45:23;;;;;;;4.10;2.53;;;;;;;17.87;100.00;102190.78;6089760;23;20159;-72
2023/09/07 03:47:49;;;;;;;4.17;3.03;;;;;;;17.30;100.00;102118.09;6088667;23;20154;-71
2023/09/07 03:50:14;;;;;;;4.47;2.70;;;;;;;17.81;100.00;102193.31;6089721;23;20154;-71
2023/09/07 03:52:40;;;;;;;4.30;2.77;;;;;;;17.77;100.00;102208.31;6090299;23;20205;-72
2023/09/07 03:55:06;;;;;;;4.30;2.80;;;;;;;17.40;100.00;102167.31;6088826;23;20162;-71
2023/09/07 03:57:32;;;;;;;4.37;3.20;;;;;;;16.88;100.00;102100.44;6065797;23;20182;-72
2023/09/07 04:00:00;;;;;;;4.53;3.00;;;;;;;16.67;100.00;102104.19;6090642;23;20401;-71
2023/09/07 04:02:25;;;;;;;4.00;2.67;;;;;;;17.49;100.00;102229.47;6088848;23;20166;-71
2023/09/07 04:04:53;;;;;;;4.10;2.63;;;;;;;16.44;100.00;102039.59;6090038;23;20382;-72
2023/09/07 04:07:18;;;;;;;7.30;2.63;;;;;;;16.73;100.00;102123.13;6090635;23;20221;-72
2023/09/07 04:09:44;;;;;;;4.43;2.77;;;;;;;16.92;100.00;102120.66;6088941;23;21134;-72
2023/09/07 04:12:10;;;;;;;5.87;2.93;;;;;;;17.25;100.00;102179.44;6091896;23;20159;-71
2023/09/07 04:14:36;;;;;;;4.17;2.57;;;;;;;17.60;100.00;102217.97;6090178;23;20470;-71
2023/09/07 04:17:02;;;;;;;4.60;3.00;;;;;;;17.38;100.00;102184.81;6091839;23;20245;-72
2023/09/07 04:19:28;;;;;;;6.90;3.13;;;;;;;16.79;100.00;102109.84;6090105;23;20402;-72
2023/09/07 04:21:53;;;;;;;11.33;3.50;;;;;;;16.93;100.00;102101.47;6089957;23;20198;-72
2023/09/07 04:24:19;;;;;;;5.73;2.90;;;;;;;16.63;100.00;102108.34;6087318;23;20158;-71
2023/09/07 04:26:44;;;;;;;4.40;3.40;;;;;;;17.50;100.00;102241.97;6091397;23;20155;-72
2023/09/07 04:29:11;;;;;;;4.57;3.03;;;;;;;17.54;100.00;102251.38;6065075;23;20621;-71
2023/09/07 04:31:37;;;;;;;6.43;2.93;;;;;;;17.42;100.00;102232.19;6059369;23;20228;-72
2023/09/07 04:34:02;;;;;;;4.40;2.93;;;;;;;16.68;100.00;102109.38;6087130;23;20375;-71
2023/09/07 04:36:28;;;;;;;6.07;2.97;;;;;;;16.62;100.00;102114.81;6089843;23;20229;-71
2023/09/07 04:38:54;;;;;;;4.53;2.73;;;;;;;17.62;100.00;102257.41;6064930;23;20575;-72
2023/09/07 04:41:19;;;;;;;5.10;3.60;;;;;;;16.96;100.00;102121.09;6089437;23;20162;-71
2023/09/07 04:43:44;;;;;;;4.70;3.40;;;;;;;17.70;100.00;102237.34;6088278;23;20181;-71
2023/09/07 04:46:11;;;;;;;5.40;3.63;;;;;;;17.50;100.00;102248.25;6065097;23;20185;-71
2023/09/07 04:48:36;;;;;;;4.40;3.00;;;;;;;17.22;100.00;102225.97;6089697;23;20609;-71
2023/09/07 04:51:04;;;;;;;5.60;3.63;;;;;;;16.29;100.00;102104.78;6062763;23;20397;-71
2023/09/07 04:53:31;;;;;;;4.43;3.30;;;;;;;17.41;100.00;102241.34;6086618;23;20162;-71
2023/09/07 04:55:57;;;;;;;5.10;2.93;;;;;;;16.94;100.00;102151.91;6088202;23;20413;-71
2023/09/07 04:58:24;;;;;;;4.77;3.60;;;;;;;17.35;100.00;102198.81;6089325;23;20437;-71
2023/09/07 05:00:49;;;;;;;4.70;3.40;;;;;;;17.15;100.00;102153.59;6090348;23;20409;-71
2023/09/07 05:03:15;;;;;;;4.90;3.40;;;;;;;16.94;100.00;102151.91;6089503;23;20731;-72
2023/09/07 05:05:41;;;;;;;4.10;3.33;;;;;;;17.00;100.00;102134.00;6089732;23;20249;-71
2023/09/07 05:08:07;;;;;;;5.70;3.10;;;;;;;17.50;100.00;102218.41;6090753;23;20230;-71
2023/09/07 05:10:36;;;;;;;4.90;3.47;;;;;;;17.36;100.00;102204.03;6089844;23;20796;-72
2023/09/07 05:13:01;;;;;;;4.80;3.47;;;;;;;16.83;100.00;102102.94;6089983;23;20614;-71
2023/09/07 05:15:27;;;;;;;5.23;3.50;;;;;;;17.67;100.00;102248.63;6090254;23;20462;-72
2023/09/07 05:17:53;;;;;;;5.20;3.33;;;;;;;16.91;100.00;102135.25;6090311;23;20186;-72
2023/09/07 05:20:18;;;;;;;5.90;3.97;;;;;;;17.05;100.00;102172.16;6091577;23;20150;-71
2023/09/07 05:22:44;;;;;;;5.23;3.80;;;;;;;17.23;100.00;102186.94;6090435;23;20383;-71
2023/09/07 05:25:10;;;;;;;4.80;2.93;;;;;;;17.18;100.00;102149.59;6092099;23;20158;-72
2023/09/07 05:27:35;;;;;;;5.80;4.53;;;;;;;17.05;100.00;102138.78;6091405;23;20226;-71
2023/09/07 05:30:05;;;;;;;6.33;4.40;;;;;;;17.82;100.00;102256.59;6091446;23;20403;-71
2023/09/07 05:32:30;;;;;;;7.30;4.13;;;;;;;16.80;100.00;102114.19;6092641;23;20169;-72
2023/09/07 05:34:56;;;;;;;5.13;4.00;;;;;;;15.54;100.00;101891.09;6080276;23;20446;-69
2023/09/07 05:37:21;;;;;;;7.20;4.27;;;;;;;16.80;100.00;102122.34;6062552;23;20179;-69
2023/09/07 05:39:47;;;;;;;6.83;4.10;;;;;;;17.90;100.00;102264.47;6060505;23;20187;-69
2023/09/07 05:42:12;;;;;;;5.07;3.40;;;;;;;17.82;100.00;102248.44;6063106;23;20151;-69
2023/09/07 05:44:38;;;;;;;5.00;3.53;;;;;;;17.90;100.00;102258.22;6063182;23;20194;-69
2023/09/07 05:47:04;;;;;;;5.13;3.80;;;;;;;17.99;100.00;102263.22;6063106;23;20159;-69
2023/09/07 05:49:30;;;;;;;4.70;3.30;;;;;;;17.41;100.00;102168.13;6061552;23;20583;-69
2023/09/07 05:51:55;;;;;;;5.30;3.73;;;;;;;17.50;100.00;102180.44;6061563;23;20378;-69
2023/09/07 05:54:21;;;;;;;7.23;3.80;;;;;;;17.78;100.00;102255.31;6062317;23;20162;-70
2023/09/07 05:56:46;;;;;;;6.50;3.60;;;;;;;17.27;100.00;102140.22;6061557;23;20896;-69
2023/09/07 05:59:11;;;;;;;6.23;4.13;;;;;;;17.56;100.00;102187.72;6062335;23;20580;-69
2023/09/07 06:01:38;;;;;;;5.80;3.10;;;;;;;17.70;100.00;102198.53;6061456;23;20160;-69
2023/09/07 06:04:04;;;;;;;4.93;3.13;;;;;;;17.73;100.00;102189.97;6062651;23;20382;-70
2023/09/07 06:06:29;;;;;;;5.17;3.70;;;;;;;17.40;100.00;102133.94;6061319;23;20839;-70
2023/09/07 06:08:55;;;;;;;5.50;3.20;;;;;;;18.28;100.00;102261.00;6058450;23;20243;-69
2023/09/07 06:11:20;;;;;;;5.70;3.60;;;;;;;18.31;100.00;102274.13;6060569;23;20162;-69
2023/09/07 06:13:46;;;;;;;5.00;3.30;;;;;;;18.45;100.00;102266.78;6062193;23;20166;-69
2023/09/07 06:16:12;;;;;;;5.03;3.40;;;;;;;18.43;100.00;102283.31;6058603;23;20159;-69
2023/09/07 06:18:37;;;;;;;4.87;3.33;;;;;;;18.45;100.00;102281.19;6060509;23;20491;-69
2023/09/07 06:21:05;;;;;;;6.73;3.27;;;;;;;18.13;100.00;102220.53;6062181;23;20664;-69
2023/09/07 06:23:31;;;;;;;6.60;3.30;;;;;;;18.53;100.00;102274.69;6061635;23;20471;-69
2023/09/07 06:25:56;;;;;;;4.90;3.30;;;;;;;18.70;100.00;102275.84;6064464;23;20412;-69
2023/09/07 06:28:22;;;;;;;5.93;3.53;;;;;;;18.57;100.00;102270.47;6058761;23;20645;-69
2023/09/07 06:30:47;;;;;;;7.50;3.80;;;;;;;18.70;100.00;102270.41;6062442;23;20962;-69
2023/09/07 06:33:13;;;;;;;6.30;3.80;;;;;;;18.57;100.00;102218.00;6062175;23;20164;-69
2023/09/07 06:35:39;;;;;;;5.30;4.17;;;;;;;18.77;100.00;102264.13;6081246;23;20169;-69
2023/09/07 06:38:04;;;;;;;6.17;4.07;;;;;;;18.61;100.00;102251.88;6089389;23;20186;-69
2023/09/07 06:40:29;;;;;;;5.80;4.00;;;;;;;18.70;100.00;102243.22;6091107;23;20661;-69
2023/09/07 06:42:57;;;;;;;4.73;3.73;;;;;;;18.81;100.00;102241.72;6090565;23;20327;-69
2023/09/07 06:45:23;;;;;;;5.13;3.63;;;;;;;19.02;100.00;102275.03;6089915;23;20666;-69
2023/09/07 06:47:51;;;;;;;5.60;3.47;;;;;;;19.12;100.00;102276.22;6089921;23;20696;-69
2023/09/07 06:50:17;;;;;;;5.63;3.70;;;;;;;19.02;100.00;102259.56;6087301;23;20402;-69
2023/09/07 06:52:42;;;;;;;5.50;3.87;;;;;;;18.93;100.00;102237.25;6085557;23;20426;-70
2023/09/07 06:55:08;;;;;;;4.87;3.47;;;;;;;19.23;100.00;102287.44;6090901;23;20210;-69
2023/09/07 06:57:33;;;;;;;4.77;3.10;;;;;;;19.00;100.00;102234.47;6088637;23;20249;-70
2023/09/07 06:59:59;;;;;;;5.50;3.83;;;;;;;18.84;100.00;102202.41;6087127;23;20174;-70
2023/09/07 07:02:25;;;;;;;4.90;3.50;;;;;;;18.80;100.00;102190.28;6065833;23;20162;-70
2023/09/07 07:04:50;;;;;;;4.67;3.43;;;;;;;19.19;100.00;102235.38;6091445;23;20154;-70
2023/09/07 07:07:17;;;;;;;7.33;3.60;;;;;;;19.06;100.00;102228.13;6089358;23;20605;-70
2023/09/07 07:09:42;;;;;;;5.10;3.30;;;;;;;19.41;100.00;102263.00;6090020;23;20174;-70
2023/09/07 07:12:07;;;;;;;4.80;3.40;;;;;;;19.25;100.00;102215.44;6090047;23;20394;-70
2023/09/07 07:14:33;;;;;;;4.23;3.10;;;;;;;19.34;100.00;102257.63;6088888;23;20186;-69
2023/09/07 07:16:58;;;;;;;6.07;4.00;;;;;;;19.63;100.00;102274.31;6089741;23;20179;-70
2023/09/07 07:19:24;;;;;;;4.30;3.13;;;;;;;19.51;100.00;102246.19;6090430;23;20250;-70
2023/09/07 07:21:50;;;;;;;4.80;3.27;;;;;;;19.36;100.00;102233.75;6091375;23;20590;-70
2023/09/07 07:24:15;;;;;;;5.77;3.77;;;;;;;19.58;100.00;102266.81;6089420;23;20201;-70
2023/09/07 07:26:41;;;;;;;6.53;3.47;;;;;;;20.00;100.00;102286.09;6064613;23;20162;-70
2023/09/07 07:29:06;;;;;;;4.80;3.57;;;;;;;19.97;100.00;102288.44;6084927;23;20181;-70
2023/09/07 07:31:32;;;;;;;5.27;3.60;;;;;;;19.96;100.00;102284.91;6088736;23;20627;-70
2023/09/07 07:33:58;;;;;;;4.60;3.47;;;;;;;20.18;100.00;102289.88;6089859;23;20583;-70
2023/09/07 07:36:23;;;;;;;5.30;3.70;;;;;;;19.78;100.00;102220.34;6090524;23;20169;-70
2023/09/07 07:38:49;;;;;;;5.20;2.93;;;;;;;20.14;100.00;102264.16;6064509;23;20439;-70
2023/09/07 07:41:15;;;;;;;5.00;3.40;;;;;;;20.44;100.00;102291.44;6090281;23;20475;-70
2023/09/07 07:43:40;;;;;;;4.20;3.23;;;;;;;20.61;100.00;102286.22;6090230;23;20385;-70
2023/09/07 07:46:08;;;;;;;5.40;3.30;;;;;;;20.58;100.00;102262.97;6090909;23;20245;-70
2023/09/07 07:48:35;;;;;;;3.93;3.03;;;;;;;20.71;100.00;102270.13;6088482;23;20740;-70
2023/09/07 07:51:04;;;;;;;5.10;2.97;;;;;;;20.81;100.00;102277.78;6090067;23;20478;-70
2023/09/07 07:53:30;;;;;;;4.70;3.17;;;;;;;20.88;100.00;102292.94;6090207;23;20382;-70
2023/09/07 07:55:56;;;;;;;5.40;2.80;;;;;;;20.93;100.00;102268.53;6063020;23;20803;-70
2023/09/07 07:58:22;;;;;;;4.70;3.13;;;;;;;20.98;100.00;102270.59;6089119;23;20871;-70
2023/09/07 08:00:48;;;;;;;4.97;3.50;;;;;;;20.88;100.00;102237.59;6089516;23;20394;-70
2023/09/07 08:03:14;;;;;;;3.97;2.83;;;;;;;21.15;100.00;102259.81;6090202;23;20158;-70
2023/09/07 08:05:40;;;;;;;4.70;2.97;;;;;;;21.27;100.00;102262.56;6088824;23;20379;-70
2023/09/07 08:08:05;;;;;;;5.10;3.30;;;;;;;20.66;100.00;102153.63;6089409;23;20728;-70
2023/09/07 08:10:36;;;;;;;4.37;3.00;;;;;;;21.24;100.00;102227.56;6087521;23;20375;-70
2023/09/07 08:13:02;;;;;;;6.03;3.57;;;;;;;21.18;100.00;102221.97;6088698;23;20158;-70
2023/09/07 08:15:29;;;;;;;4.90;2.80;;;;;;;21.39;100.00;102241.59;6088992;23;20442;-70
2023/09/07 08:17:55;;;;;;;6.93;3.63;;;;;;;21.26;100.00;102223.50;6089319;23;20999;-70
2023/09/07 08:20:20;;;;;;;5.40;3.33;;;;;;;21.49;100.00;102228.16;6090166;23;20383;-70
2023/09/07 08:22:46;;;;;;;4.80;2.87;;;;;;;21.45;100.00;102199.69;6089726;23;20385;-70
2023/09/07 08:25:13;;;;;;;4.03;3.07;;;;;;;21.63;100.00;102217.84;6091037;23;20155;-70
2023/09/07 08:27:44;;;;;;;5.20;3.10;;;;;;;21.15;100.00;102134.31;6064420;23;20158;-70
2023/09/07 08:30:12;;;;;;;4.17;2.73;;;;;;;21.67;100.00;102200.75;6089400;23;20409;-70
2023/09/07 08:32:38;;;;;;;4.63;3.20;;;;;;;21.77;100.00;102210.22;6089343;23;20486;-70
2023/09/07 08:35:07;;;;;;;4.17;2.67;;;;;;;21.91;100.00;102219.00;6090311;23;20832;-70
2023/09/07 08:37:33;;;;;;;6.53;3.00;;;;;;;21.98;100.00;102219.66;6090291;23;20484;-70
2023/09/07 08:39:59;;;;;;;6.10;3.20;;;;;;;21.80;100.00;102191.44;6090744;23;21245;-70
2023/09/07 08:42:25;;;;;;;4.20;2.80;;;;;;;22.12;100.00;102215.59;6089906;23;20180;-70
2023/09/07 08:44:54;;;;;;;5.30;3.50;;;;;;;21.89;100.00;102172.78;6089619;23;20386;-70
2023/09/07 08:47:21;;;;;;;4.53;2.90;;;;;;;21.60;100.00;102115.41;6090357;23;20382;-70
2023/09/07 08:49:47;;;;;;;3.97;2.70;;;;;;;22.17;100.00;102210.25;6088133;23;20795;-70
2023/09/07 08:52:14;;;;;;;9.47;3.10;;;;;;;22.01;100.00;102154.44;6087391;23;20561;-70
2023/09/07 08:54:42;;;;;;;5.80;3.80;;;;;;;22.31;100.00;102210.81;6090608;23;20379;-70
2023/09/07 08:57:08;;;;;;;4.77;3.00;;;;;;;22.38;100.00;102202.44;6092068;23;20517;-71
2023/09/07 08:59:34;;;;;;;3.50;2.47;;;;;;;22.52;100.00;102203.81;6087766;23;20974;-70
2023/09/07 09:01:59;;;;;;;5.43;2.90;;;;;;;22.59;100.00;102193.53;6092428;23;20422;-71
2023/09/07 09:04:27;;;;;;;4.57;3.20;;;;;;;22.65;100.00;102202.66;6091655;23;20242;-70
2023/09/07 09:06:53;;;;;;;4.20;3.23;;;;;;;22.55;100.00;102193.19;6092918;23;20154;-71
2023/09/07 09:09:25;;;;;;;3.80;2.70;;;;;;;22.71;100.00;102191.56;6091845;23;20458;-70
2023/09/07 09:11:51;;;;;;;4.70;2.90;;;;;;;22.50;100.00;102154.00;6092999;23;20159;-70
2023/09/07 09:14:21;;;;;;;4.10;3.07;;;;;;;22.18;100.00;102079.91;6092538;23;20885;-70
2023/09/07 09:16:51;;;;;;;4.87;3.20;;;;;;;22.86;100.00;102185.53;6093050;23;20492;-70
2023/09/07 09:19:17;;;;;;;4.40;2.83;;;;;;;22.70;100.00;102146.13;6091716;23;20481;-70
2023/09/07 09:21:44;;;;;;;6.70;3.10;;;;;;;22.84;100.00;102137.63;6093154;23;20385;-70
2023/09/07 09:24:10;;;;;;;3.80;2.53;;;;;;;23.18;100.00;102165.81;6093009;23;20386;-70
2023/09/07 09:26:39;;;;;;;4.23;2.80;;;;;;;22.99;100.00;102124.19;6093020;23;20383;-70
2023/09/07 09:29:04;;;;;;;3.97;2.70;;;;;;;23.23;100.00;102168.63;6092276;23;20897;-70
2023/09/07 09:31:30;;;;;;;4.90;2.77;;;;;;;23.34;100.00;102162.19;6093683;23;20378;-70
2023/09/07 09:33:56;;;;;;;4.50;2.87;;;;;;;23.31;100.00;102145.44;6092648;23;20165;-70
2023/09/07 09:36:22;;;;;;;4.70;3.30;;;;;;;23.43;100.00;102152.47;6093229;23;20386;-70
2023/09/07 09:38:50;;;;;;;4.70;2.60;;;;;;;23.25;100.00;102114.44;6092144;23;20765;-70
2023/09/07 09:41:17;;;;;;;4.87;2.70;;;;;;;23.42;100.00;102149.97;6093157;23;20378;-70
2023/09/07 09:43:44;;;;;;;3.50;2.33;;;;;;;23.60;100.00;102148.84;6091568;23;20382;-70
2023/09/07 09:46:11;;;;;;;4.50;2.93;;;;;;;23.33;100.00;102085.81;6092740;23;20422;-70
2023/09/07 09:48:38;;;;;;;4.23;2.90;;;;;;;23.69;100.00;102125.38;6092331;23;20409;-70
2023/09/07 09:51:04;;;;;;;5.23;2.83;;;;;;;23.94;100.00;102144.06;6089828;23;20378;-70
2023/09/07 09:53:30;;;;;;;4.13;2.63;;;;;;;23.34;100.00;102039.00;6092646;23;20411;-70
2023/09/07 09:55:55;;;;;;;5.20;2.70;;;;;;;23.96;100.00;102133.69;6092143;23;20598;-70
2023/09/07 09:58:21;;;;;;;4.97;3.20;;;;;;;23.94;100.00;102124.91;6091137;23;20434;-70
2023/09/07 10:00:51;;;;;;;6.17;2.90;;;;;;;24.11;100.00;102127.53;6093105;23;20645;-70
2023/09/07 10:03:31;;;;;;;4.10;2.70;;;;;;;24.07;100.00;102134.59;6092766;23;20154;-70
2023/09/07 10:06:09;;;;;;;5.87;3.30;;;;;;;21.39;100.00;101682.94;6101943;23;20441;-73
2023/09/07 10:08:34;;;;;;;4.50;3.03;;;;;;;22.86;100.00;101924.84;6088926;23;20420;-73
2023/09/07 10:11:06;;;;;;;4.30;2.80;;;;;;;23.28;100.00;101968.84;6092795;23;20786;-73
2023/09/07 10:13:36;;;;;;;7.57;2.70;;;;;;;22.01;100.00;101779.34;6091052;23;20143;-73
2023/09/07 10:16:09;;;;;;;5.07;3.03;;;;;;;24.15;100.00;102079.31;6093605;23;20389;-73
2023/09/07 10:18:37;;;;;;;5.63;3.20;;;;;;;24.45;100.00;102124.63;6092810;23;20434;-74
2023/09/07 10:21:02;;;;;;;4.80;2.93;;;;;;;24.33;100.00;102095.41;6067320;23;20398;-74
2023/09/07 10:23:41;;;;;;;3.90;2.70;;;;;;;24.53;100.00;102124.09;6065840;23;20409;-74
2023/09/07 10:26:15;;;;;;;9.00;2.40;;;;;;;24.62;100.00;102124.44;6092531;23;20154;-73
2023/09/07 10:28:42;;;;;;;5.47;2.80;;;;;;;24.30;100.00;102078.63;6091127;23;20395;-73
2023/09/07 10:31:19;;;;;;;4.60;2.40;;;;;;;24.60;100.00;102080.03;6092787;23;20751;-73
2023/09/07 10:33:46;;;;;;;4.70;3.03;;;;;;;24.88;100.00;102109.00;6090842;23;20426;-73
2023/09/07 10:36:23;;;;;;;4.37;3.00;;;;;;;24.22;100.00;102014.16;6090190;23;20394;-73
2023/09/07 10:38:48;;;;;;;4.10;2.37;;;;;;;24.69;100.00;102073.78;6090337;23;20441;-73
2023/09/07 10:41:14;;;;;;;4.10;2.53;;;;;;;24.66;100.00;102040.56;6092715;23;21069;-73
2023/09/07 10:43:51;;;;;;;4.50;2.67;;;;;;;24.93;100.00;102090.66;6091620;23;20159;-73
2023/09/07 10:46:21;;;;;;;5.50;3.00;;;;;;;25.00;100.00;102091.25;6090122;23;20151;-74
2023/09/07 10:48:52;;;;;;;7.63;3.33;;;;;;;24.78;100.00;102055.72;6090351;23;20436;-73
2023/09/07 10:51:19;;;;;;;4.57;2.70;;;;;;;24.96;100.00;102070.09;6088939;23;20382;-73
2023/09/07 10:53:44;;;;;;;4.10;2.63;;;;;;;24.91;100.00;102070.91;6092179;23;20533;-73
2023/09/07 10:56:10;;;;;;;4.70;2.80;;;;;;;25.13;100.00;102097.38;6091983;23;20866;-73
2023/09/07 10:58:41;;;;;;;5.47;2.90;;;;;;;25.06;100.00;102052.88;6091275;23;20242;-73
2023/09/07 11:01:08;;;;;;;4.70;2.53;;;;;;;25.38;100.00;102094.78;6092932;23;20811;-73
2023/09/07 11:03:36;;;;;;;4.50;3.00;;;;;;;25.22;100.00;102095.78;6089722;23;20390;-73
2023/09/07 11:06:09;;;;;;;5.50;3.20;;;;;;;25.20;100.00;102051.31;6085626;23;20403;-73
2023/09/07 11:08:34;;;;;;;4.80;2.53;;;;;;;25.41;100.00;102069.53;6061224;23;20418;-72
2023/09/07 11:11:04;;;;;;;4.90;2.77;;;;;;;25.45;100.00;102078.84;6085163;23;20387;-73
2023/09/07 11:13:30;;;;;;;4.23;2.63;;;;;;;25.50;100.00;102069.00;6061104;23;20189;-74